Time;durP1;ratioP1;P1;durP2;ratioP2;P2;SDS_P1;SDS_P2;PMS_P1;PMS_P2;Temp;Humidity;BMP_temperature;BMP_pressure;BME280_temperature;BME280_humidity;BME280_pressure;Samples;Min_cycle;Max_cycle;Signal;HPM_P1;HPM_P2
2022/07/17 00:00:13;;;;;;;987.22;921.58;;;;;;;19.23;40.71;102023.34;692350;28;22454;-66
2022/07/17 00:00:34;;;;;;;994.35;928.45;;;;;;;19.21;40.69;102020.81;690593;28;69464;-66
2022/07/17 00:00:56;;;;;;;994.95;929.05;;;;;;;19.20;41.02;102018.28;691699;28;22463;-66
2022/07/17 00:01:18;;;;;;;979.75;914.33;;;;;;;19.21;40.78;102025.47;691453;28;45914;-66
2022/07/17 00:01:39;;;;;;;982.75;917.42;;;;;;;19.20;41.07;102015.56;692511;28;6630;-66
2022/07/17 00:02:00;;;;;;;984.85;919.65;;;;;;;19.19;41.05;102013.88;691918;28;22409;-66
2022/07/17 00:02:26;;;;;;;970.08;905.28;;;;;;;19.18;41.05;102034.91;692220;28;23416;-66
2022/07/17 00:02:47;;;;;;;966.55;901.88;;;;;;;19.18;40.91;102032.19;687775;28;115842;-66
2022/07/17 00:03:09;;;;;;;956.80;892.45;;;;;;;19.19;40.96;102027.56;691547;28;46480;-66
2022/07/17 00:03:30;;;;;;;957.80;893.50;;;;;;;19.18;40.86;102029.44;691193;28;47060;-66
2022/07/17 00:03:52;;;;;;;985.42;920.13;;;;;;;19.15;40.77;102024.38;689374;28;22461;-66
2022/07/17 00:04:14;;;;;;;989.95;924.47;;;;;;;19.17;41.19;102029.66;688467;28;46264;-66
2022/07/17 00:04:35;;;;;;;963.13;898.83;;;;;;;19.15;41.21;102031.75;690859;28;22399;-66
2022/07/17 00:04:56;;;;;;;962.40;898.10;;;;;;;19.16;41.14;102027.97;689596;28;21681;-66
2022/07/17 00:05:17;;;;;;;968.80;904.13;;;;;;;19.13;40.86;102028.38;689755;28;46087;-66
2022/07/17 00:05:39;;;;;;;965.42;900.85;;;;;;;19.16;41.12;102025.25;690636;28;22396;-66
2022/07/17 00:06:01;;;;;;;981.33;916.17;;;;;;;19.16;41.10;102027.97;691210;28;46368;-66
2022/07/17 00:06:22;;;;;;;965.92;901.33;;;;;;;19.15;40.96;102031.75;691362;28;21530;-66
2022/07/17 00:06:43;;;;;;;969.15;904.35;;;;;;;19.15;41.19;102027.13;691690;28;22258;-66
2022/07/17 00:07:05;;;;;;;975.35;910.38;;;;;;;19.15;41.12;102032.59;691632;28;45276;-66
2022/07/17 00:07:27;;;;;;;971.63;906.80;;;;;;;19.14;40.93;102030.91;691485;28;44394;-66
2022/07/17 00:07:49;;;;;;;961.13;896.65;;;;;;;19.15;41.28;102031.75;691645;28;21343;-66
2022/07/17 00:08:11;;;;;;;984.05;918.80;;;;;;;19.13;41.32;102028.38;690654;28;67457;-66
2022/07/17 00:08:32;;;;;;;985.63;920.35;;;;;;;19.16;41.24;102033.44;691314;28;46410;-66
2022/07/17 00:08:56;;;;;;;972.03;907.15;;;;;;;19.16;40.95;102031.56;690865;28;22419;-66
2022/07/17 00:09:17;;;;;;;979.20;914.03;;;;;;;19.18;41.13;102042.31;689592;28;92021;-65
2022/07/17 00:09:38;;;;;;;979.60;914.45;;;;;;;19.17;41.09;102030.50;691568;28;22204;-66
2022/07/17 00:10:02;;;;;;;980.03;914.72;;;;;;;19.17;41.31;102025.03;691996;28;22354;-66
2022/07/17 00:10:24;;;;;;;978.28;913.15;;;;;;;19.18;41.05;102032.19;690382;28;69582;-66
2022/07/17 00:10:45;;;;;;;968.78;904.08;;;;;;;19.16;41.19;102025.25;691861;28;46296;-66
2022/07/17 00:11:07;;;;;;;974.03;909.08;;;;;;;19.15;41.04;102031.75;691173;28;46263;-66
2022/07/17 00:11:28;;;;;;;966.95;902.28;;;;;;;19.16;41.18;102028.81;691099;28;22379;-66
2022/07/17 00:11:50;;;;;;;974.10;909.17;;;;;;;19.16;41.23;102030.72;691360;28;22418;-67
2022/07/17 00:12:11;;;;;;;968.85;904.15;;;;;;;19.16;41.03;102027.97;690898;28;70266;-66
2022/07/17 00:12:32;;;;;;;972.67;907.83;;;;;;;19.13;41.21;102031.94;692298;28;22418;-66
2022/07/17 00:12:54;;;;;;;970.88;906.08;;;;;;;19.14;40.95;102035.53;691735;28;22365;-66
2022/07/17 00:13:16;;;;;;;965.78;901.17;;;;;;;19.12;41.17;102029.41;693377;28;23428;-66
2022/07/17 00:13:37;;;;;;;987.40;921.95;;;;;;;19.08;41.24;102031.72;690532;28;70417;-66
2022/07/17 00:13:59;;;;;;;987.80;922.10;;;;;;;19.06;41.31;102029.19;691725;28;21518;-66
2022/07/17 00:14:20;;;;;;;967.03;902.22;;;;;;;19.09;41.00;102033.44;692454;28;23649;-65
2022/07/17 00:14:42;;;;;;;964.15;899.55;;;;;;;19.08;41.37;102034.47;691499;28;22379;-66
2022/07/17 00:15:04;;;;;;;959.10;894.67;;;;;;;19.07;41.09;102030.03;690379;28;69392;-66
2022/07/17 00:15:25;;;;;;;971.90;906.95;;;;;;;19.05;41.40;102032.13;691446;28;44368;-66
2022/07/17 00:15:47;;;;;;;998.83;932.83;;;;;;;19.04;41.47;102031.28;691749;28;21488;-66
2022/07/17 00:16:09;;;;;;;970.17;905.33;;;;;;;19.04;41.29;102031.28;692350;28;22376;-66
2022/07/17 00:16:30;;;;;;;968.45;903.75;;;;;;;19.05;41.11;102030.22;690551;28;46316;-66
2022/07/17 00:16:53;;;;;;;969.07;904.30;;;;;;;19.04;41.53;102030.44;692394;28;1654;-66
2022/07/17 00:17:14;;;;;;;982.05;916.80;;;;;;;19.04;41.35;102034.03;690140;28;69355;-66
2022/07/17 00:17:35;;;;;;;990.22;924.53;;;;;;;19.04;41.22;102038.66;692430;28;23485;-66
2022/07/17 00:17:58;;;;;;;985.75;920.17;;;;;;;19.04;41.36;102034.03;691448;28;23450;-66
2022/07/17 00:18:20;;;;;;;985.83;920.22;;;;;;;19.02;41.53;102032.53;689830;28;92053;-66
2022/07/17 00:18:41;;;;;;;985.90;920.30;;;;;;;19.02;41.47;102035.28;691926;28;21416;-66
2022/07/17 00:19:02;;;;;;;967.22;902.25;;;;;;;18.98;41.55;102029.38;692352;28;22393;-73
2022/07/17 00:19:25;;;;;;;1005.28;938.83;;;;;;;18.99;41.36;102033.78;690768;28;46255;-66
2022/07/17 00:19:46;;;;;;;1002.55;936.35;;;;;;;19.01;41.49;102031.69;690389;28;44519;-67
2022/07/17 00:20:08;;;;;;;989.15;923.40;;;;;;;18.99;41.54;102028.28;692655;28;22395;-67
2022/07/17 00:20:30;;;;;;;978.83;913.47;;;;;;;19.03;41.51;102046.03;691679;28;51687;-67
2022/07/17 00:20:52;;;;;;;1003.00;936.67;;;;;;;19.04;41.55;102035.91;692459;28;22179;-67
2022/07/17 00:21:13;;;;;;;984.65;919.05;;;;;;;19.06;41.62;102036.56;692260;28;44934;-66
2022/07/17 00:21:34;;;;;;;967.53;902.53;;;;;;;19.06;41.45;102037.41;692743;28;22487;-67
2022/07/17 00:21:55;;;;;;;986.40;920.70;;;;;;;19.07;41.72;102035.50;690516;28;22488;-66
2022/07/17 00:22:18;;;;;;;1002.42;936.20;;;;;;;19.09;41.35;102038.91;691401;28;22419;-66
2022/07/17 00:22:39;;;;;;;990.22;924.50;;;;;;;19.11;41.41;102034.06;689740;28;69138;-67
2022/07/17 00:23:01;;;;;;;957.75;893.30;;;;;;;19.08;41.39;102031.72;690646;28;45291;-67
2022/07/17 00:23:22;;;;;;;971.65;906.67;;;;;;;19.13;41.21;102037.44;690687;28;22383;-67
2022/07/17 00:23:44;;;;;;;974.78;909.70;;;;;;;19.13;41.44;102037.44;690994;28;22233;-67
2022/07/17 00:24:07;;;;;;;955.67;891.27;;;;;;;19.12;41.44;102035.72;691483;28;69196;-66
2022/07/17 00:24:29;;;;;;;977.55;912.35;;;;;;;19.12;41.44;102037.63;691274;28;90763;-68
2022/07/17 00:24:51;;;;;;;984.03;918.58;;;;;;;19.13;41.49;102042.06;691179;28;23534;-67
2022/07/17 00:25:13;;;;;;;962.83;898.50;;;;;;;19.09;41.44;102042.47;692409;28;46144;-66
2022/07/17 00:25:34;;;;;;;948.63;884.90;;;;;;;19.12;41.26;102034.91;692629;28;46394;-66
2022/07/17 00:25:55;;;;;;;954.03;890.10;;;;;;;19.13;41.29;102039.34;692171;28;22187;-67
2022/07/17 00:26:17;;;;;;;952.85;888.95;;;;;;;19.11;41.44;102034.06;693024;28;23439;-67
2022/07/17 00:26:39;;;;;;;955.33;891.35;;;;;;;19.09;41.51;102039.75;693029;28;4887;-67
2022/07/17 00:27:00;;;;;;;948.25;884.40;;;;;;;19.09;41.26;102041.63;691513;28;45363;-67
2022/07/17 00:27:21;;;;;;;946.45;882.67;;;;;;;19.09;41.55;102036.16;690955;28;22739;-67
2022/07/17 00:27:43;;;;;;;949.28;885.47;;;;;;;19.08;41.50;102042.69;690283;28;23319;-66
2022/07/17 00:28:05;;;;;;;955.63;891.45;;;;;;;19.07;41.14;102040.97;690372;28;46314;-67
2022/07/17 00:28:26;;;;;;;962.15;897.58;;;;;;;19.07;41.19;102040.97;690797;28;46404;-67
2022/07/17 00:28:48;;;;;;;981.13;915.95;;;;;;;19.04;41.57;102041.38;690792;28;23521;-67
2022/07/17 00:29:09;;;;;;;973.95;908.95;;;;;;;19.05;41.27;102041.19;692287;28;46342;-67
2022/07/17 00:29:31;;;;;;;930.70;867.15;;;;;;;19.04;41.45;102039.50;691761;28;22373;-67
2022/07/17 00:29:53;;;;;;;939.58;875.75;;;;;;;19.05;41.67;102041.19;691099;28;45288;-67
2022/07/17 00:30:14;;;;;;;937.38;873.67;;;;;;;19.04;41.51;102039.50;692589;28;46362;-66
2022/07/17 00:30:37;;;;;;;931.88;868.33;;;;;;;19.06;41.39;102042.03;693246;28;22403;-67
2022/07/17 00:30:59;;;;;;;929.10;866.00;;;;;;;19.06;41.78;102044.78;691089;28;67427;-67
2022/07/17 00:31:20;;;;;;;940.78;877.35;;;;;;;19.07;41.27;102038.25;690868;28;45222;-67
2022/07/17 00:31:42;;;;;;;921.83;859.00;;;;;;;19.06;41.55;102039.31;693522;28;23247;-67
2022/07/17 00:32:05;;;;;;;918.35;855.67;;;;;;;19.06;41.57;102034.66;693203;28;13204;-67
2022/07/17 00:32:26;;;;;;;936.30;873.10;;;;;;;19.07;41.39;102040.97;692275;28;44313;-66
2022/07/17 00:32:48;;;;;;;953.40;889.60;;;;;;;19.03;41.51;102029.59;691674;28;46268;-67
2022/07/17 00:33:09;;;;;;;976.53;911.80;;;;;;;19.07;41.25;102040.97;692280;28;45234;-66
2022/07/17 00:33:30;;;;;;;995.42;929.75;;;;;;;19.05;41.61;102040.34;693211;28;23493;-67
2022/07/17 00:33:52;;;;;;;993.88;928.28;;;;;;;19.02;41.74;102041.59;691080;28;21521;-66
2022/07/17 00:34:14;;;;;;;975.92;910.90;;;;;;;19.02;41.51;102038.84;693474;28;46369;-67
2022/07/17 00:34:35;;;;;;;984.42;919.08;;;;;;;18.99;41.70;102031.03;692364;28;46398;-66
2022/07/17 00:34:57;;;;;;;986.92;921.42;;;;;;;19.03;41.56;102036.97;692184;28;23535;-67
2022/07/17 00:35:18;;;;;;;969.97;905.10;;;;;;;18.98;41.51;102028.50;691982;28;45068;-66
2022/07/17 00:35:40;;;;;;;972.47;907.72;;;;;;;19.01;41.59;102041.78;692216;28;46200;-67
2022/07/17 00:36:01;;;;;;;960.60;896.50;;;;;;;19.01;41.64;102045.38;692075;28;45226;-66
2022/07/17 00:36:23;;;;;;;967.92;903.38;;;;;;;19.00;41.56;102038.22;692393;28;21534;-67
2022/07/17 00:36:45;;;;;;;985.38;920.03;;;;;;;18.98;41.58;102037.56;693300;28;22252;-66
2022/07/17 00:37:06;;;;;;;972.30;907.28;;;;;;;18.97;41.79;102041.34;691992;28;46355;-66
2022/07/17 00:37:28;;;;;;;970.07;905.27;;;;;;;18.96;41.61;102041.56;693107;28;22373;-66
2022/07/17 00:37:49;;;;;;;993.33;927.70;;;;;;;18.96;41.65;102038.81;690459;28;69227;-66
2022/07/17 00:38:11;;;;;;;975.30;910.28;;;;;;;18.94;41.80;102033.53;692112;28;22417;-67
2022/07/17 00:38:32;;;;;;;969.53;904.80;;;;;;;18.93;41.73;102044.69;693816;28;1080;-66
2022/07/17 00:38:54;;;;;;;986.20;920.90;;;;;;;18.90;41.81;102038.56;691557;28;45344;-66
2022/07/17 00:39:16;;;;;;;977.15;912.03;;;;;;;18.89;41.70;102036.03;692469;28;45266;-66
2022/07/17 00:39:38;;;;;;;966.05;901.42;;;;;;;18.87;41.63;102040.84;692152;28;45280;-67
2022/07/17 00:39:59;;;;;;;976.35;911.33;;;;;;;18.85;42.02;102042.94;692929;28;23755;-66
2022/07/17 00:40:22;;;;;;;967.38;902.60;;;;;;;18.81;41.99;102038.88;692433;28;45272;-67
2022/07/17 00:40:44;;;;;;;973.75;908.75;;;;;;;18.80;42.03;102045.41;690760;28;68336;-66
2022/07/17 00:41:06;;;;;;;965.40;900.65;;;;;;;18.77;42.09;102038.44;691874;28;46377;-66
2022/07/17 00:41:28;;;;;;;959.10;894.60;;;;;;;18.76;42.18;102042.25;692669;28;6147;-67
2022/07/17 00:41:50;;;;;;;979.33;914.15;;;;;;;18.76;42.04;102038.66;692364;28;24202;-66
2022/07/17 00:42:13;;;;;;;989.80;924.33;;;;;;;18.76;42.31;102035.91;693134;28;21745;-66
2022/07/17 00:42:35;;;;;;;967.40;902.58;;;;;;;18.76;41.95;102038.66;690438;28;92268;-66
2022/07/17 00:42:56;;;;;;;959.75;895.28;;;;;;;18.72;42.17;102035.47;691850;28;44300;-67
2022/07/17 00:43:17;;;;;;;995.78;930.08;;;;;;;18.75;42.20;102039.72;692948;28;23477;-66
2022/07/17 00:43:40;;;;;;;996.75;930.95;;;;;;;18.72;42.08;102032.72;693255;28;21546;-66
2022/07/17 00:44:04;;;;;;;1006.15;939.80;;;;;;;18.73;42.41;102039.91;691806;28;43690;-67
2022/07/17 00:44:26;;;;;;;984.03;918.53;;;;;;;18.71;42.34;102042.84;689869;28;115291;-66
2022/07/17 00:44:47;;;;;;;982.80;917.50;;;;;;;18.70;42.34;102037.56;691792;28;45252;-68
2022/07/17 00:45:10;;;;;;;980.50;915.33;;;;;;;18.69;42.08;102036.69;693252;28;21541;-67
2022/07/17 00:45:34;;;;;;;952.17;887.92;;;;;;;18.68;42.21;102037.78;691307;28;69363;-66
2022/07/17 00:46:01;;;;;;;960.25;895.67;;;;;;;18.65;42.70;102035.44;690404;28;70554;-67
2022/07/17 00:46:23;;;;;;;992.67;927.03;;;;;;;18.64;42.17;102031.00;688125;28;137476;-67
2022/07/17 00:46:45;;;;;;;999.42;933.42;;;;;;;18.65;42.40;102040.91;692571;28;23409;-67
2022/07/17 00:47:11;;;;;;;993.15;927.45;;;;;;;18.61;42.24;102025.09;691895;28;44363;-67
2022/07/17 00:47:32;;;;;;;985.33;919.90;;;;;;;18.64;42.28;102035.63;689196;28;137895;-66
2022/07/17 00:47:56;;;;;;;977.53;912.35;;;;;;;18.64;42.57;102039.19;693551;28;1480;-66
2022/07/17 00:48:18;;;;;;;956.47;892.13;;;;;;;18.63;42.52;102034.75;691449;28;69418;-67
2022/07/17 00:48:39;;;;;;;965.58;900.92;;;;;;;18.62;42.34;102035.81;692194;28;46356;-66
2022/07/17 00:49:01;;;;;;;992.88;927.28;;;;;;;18.62;42.56;102035.81;693966;28;23469;-65
2022/07/17 00:49:22;;;;;;;987.63;922.22;;;;;;;18.61;42.59;102033.28;691920;28;46397;-65
2022/07/17 00:49:44;;;;;;;985.08;919.67;;;;;;;18.61;42.33;102033.28;692600;28;22515;-65
2022/07/17 00:50:06;;;;;;;971.22;906.30;;;;;;;18.60;42.54;102035.16;691382;28;69397;-65
2022/07/17 00:50:29;;;;;;;974.90;909.90;;;;;;;18.62;42.63;102032.22;692541;28;46341;-66
2022/07/17 00:50:51;;;;;;;972.00;907.17;;;;;;;18.64;42.63;102032.91;690979;28;69269;-66
2022/07/17 00:51:12;;;;;;;990.47;924.85;;;;;;;18.62;42.60;102033.09;694357;28;23412;-66
2022/07/17 00:51:35;;;;;;;1002.13;935.92;;;;;;;18.62;42.73;102035.81;692296;28;22395;-66
2022/07/17 00:51:56;;;;;;;991.88;925.92;;;;;;;18.62;42.33;102029.50;690902;28;69563;-66
2022/07/17 00:52:17;;;;;;;1004.30;937.95;;;;;;;18.63;42.54;102033.94;692897;28;22406;-66
2022/07/17 00:52:39;;;;;;;979.03;913.63;;;;;;;18.65;42.46;102026.34;691859;28;44363;-66
2022/07/17 00:53:01;;;;;;;985.47;919.72;;;;;;;18.64;42.30;102027.41;692599;28;21533;-66
2022/07/17 00:53:23;;;;;;;1004.22;937.83;;;;;;;18.67;42.51;102036.06;690961;28;69689;-65
2022/07/17 00:53:44;;;;;;;995.47;929.50;;;;;;;18.69;42.33;102030.41;692652;28;22536;-66
2022/07/17 00:54:06;;;;;;;992.33;926.42;;;;;;;18.66;42.58;102028.91;692161;28;44455;-66
2022/07/17 00:54:29;;;;;;;991.70;925.83;;;;;;;18.69;42.41;102031.22;693182;28;21496;-66
2022/07/17 00:54:53;;;;;;;973.38;908.08;;;;;;;18.70;42.38;102027.47;689900;28;92515;-66
2022/07/17 00:55:14;;;;;;;1006.30;939.85;;;;;;;18.72;42.45;102030.00;689015;28;69404;-66
2022/07/17 00:55:35;;;;;;;1009.70;943.10;;;;;;;18.71;42.61;102023.69;691251;28;22368;-66
2022/07/17 00:56:02;;;;;;;1006.65;940.25;;;;;;;18.73;42.52;102027.06;691254;28;21557;-66
2022/07/17 00:56:24;;;;;;;1005.17;938.75;;;;;;;18.75;42.49;102035.06;685820;28;138033;-67
2022/07/17 00:56:47;;;;;;;1007.17;940.67;;;;;;;18.75;42.25;102023.28;689438;28;67487;-65
2022/07/17 00:57:09;;;;;;;1005.03;938.53;;;;;;;18.75;42.49;102026.88;690709;28;45229;-66
2022/07/17 00:57:31;;;;;;;987.13;921.33;;;;;;;18.77;42.32;102032.97;691853;28;61389;-66
2022/07/17 00:57:54;;;;;;;991.05;925.13;;;;;;;18.78;42.12;102033.81;692714;28;22384;-67
2022/07/17 00:58:19;;;;;;;990.97;925.10;;;;;;;18.73;42.14;102024.31;691157;28;69396;-66
2022/07/17 00:58:40;;;;;;;988.63;922.83;;;;;;;18.74;42.37;102025.16;689961;28;115041;-66
2022/07/17 00:59:03;;;;;;;992.67;926.70;;;;;;;18.75;42.06;102026.03;693035;28;45492;-66
2022/07/17 00:59:24;;;;;;;981.05;915.58;;;;;;;18.74;42.42;102025.16;691540;28;69438;-66
2022/07/17 00:59:47;;;;;;;990.83;925.00;;;;;;;18.70;42.48;102022.00;691682;28;44356;-66
2022/07/17 01:00:10;;;;;;;989.10;923.38;;;;;;;18.73;42.43;102029.78;691705;28;69457;-66
2022/07/17 01:00:31;;;;;;;990.58;924.63;;;;;;;18.71;42.16;102031.91;692451;28;41064;-66
2022/07/17 01:00:54;;;;;;;999.22;933.10;;;;;;;18.72;42.08;102025.34;692637;28;20703;-66
2022/07/17 01:01:16;;;;;;;981.20;915.72;;;;;;;18.70;42.41;102032.09;691420;28;69448;-67
2022/07/17 01:01:37;;;;;;;1000.13;933.95;;;;;;;18.66;41.91;102025.31;692656;28;45250;-66
2022/07/17 01:01:59;;;;;;;980.53;915.10;;;;;;;18.67;42.42;102029.75;692609;28;21562;-66
2022/07/17 01:02:20;;;;;;;983.88;918.28;;;;;;;18.64;42.17;102028.25;692248;28;44263;-66
2022/07/17 01:02:45;;;;;;;1009.60;943.00;;;;;;;18.60;42.34;102026.94;692615;28;22390;-66
2022/07/17 01:03:09;;;;;;;991.85;925.95;;;;;;;18.58;42.32;102031.78;689600;28;115009;-66
2022/07/17 01:03:30;;;;;;;970.78;905.67;;;;;;;18.54;42.53;102020.41;690742;28;92096;-65
2022/07/17 01:03:51;;;;;;;993.83;927.83;;;;;;;18.53;42.83;102029.66;692529;28;23401;-66
2022/07/17 01:04:13;;;;;;;1012.45;945.75;;;;;;;18.54;42.47;102030.47;693401;28;22394;-66
2022/07/17 01:04:36;;;;;;;997.35;931.13;;;;;;;18.49;42.61;102030.25;693179;28;47163;-66
2022/07/17 01:04:57;;;;;;;974.85;909.50;;;;;;;18.46;42.78;102022.44;690720;28;70228;-65
2022/07/17 01:05:21;;;;;;;991.63;925.75;;;;;;;18.47;42.88;102024.13;692430;28;44370;-66
2022/07/17 01:05:42;;;;;;;1006.50;940.10;;;;;;;18.47;43.11;102026.88;689612;28;69353;-66
2022/07/17 01:06:04;;;;;;;1002.25;936.03;;;;;;;18.46;42.81;102033.38;690930;28;46441;-68
2022/07/17 01:06:26;;;;;;;1000.85;934.63;;;;;;;18.45;42.77;102027.06;689476;28;46288;-67
2022/07/17 01:06:48;;;;;;;968.60;903.55;;;;;;;18.44;42.71;102027.25;690229;28;44892;-66
2022/07/17 01:07:10;;;;;;;967.78;902.55;;;;;;;18.44;42.57;102021.78;690630;28;44983;-66
2022/07/17 01:07:31;;;;;;;989.97;924.17;;;;;;;18.47;42.63;102026.88;691890;28;21540;-66
2022/07/17 01:07:53;;;;;;;999.42;933.28;;;;;;;18.45;42.83;102018.84;692152;28;46335;-66
2022/07/17 01:08:15;;;;;;;1002.90;936.60;;;;;;;18.46;42.69;102023.25;692026;28;46315;-67
2022/07/17 01:08:37;;;;;;;997.92;931.85;;;;;;;18.43;42.75;102020.97;693035;28;21548;-66
2022/07/17 01:08:58;;;;;;;981.72;916.20;;;;;;;18.45;42.92;102028.94;692112;28;45235;-65
2022/07/17 01:09:19;;;;;;;981.63;916.15;;;;;;;18.43;43.10;102026.44;692708;28;22367;-66
2022/07/17 01:09:43;;;;;;;1000.63;934.28;;;;;;;18.40;43.08;102026.81;692232;28;46719;-66
2022/07/17 01:10:05;;;;;;;984.72;919.03;;;;;;;18.39;43.09;102022.38;691324;28;69589;-66
2022/07/17 01:10:31;;;;;;;992.78;926.83;;;;;;;18.40;42.97;102029.56;692153;28;46513;-66
2022/07/17 01:10:52;;;;;;;983.38;917.80;;;;;;;18.42;43.10;102024.72;688732;28;137972;-66
2022/07/17 01:11:14;;;;;;;966.10;901.50;;;;;;;18.43;42.98;102031.03;693249;28;23289;-65
2022/07/17 01:11:36;;;;;;;976.90;911.92;;;;;;;18.43;42.98;102028.28;691298;28;46294;-66
2022/07/17 01:11:57;;;;;;;963.30;898.80;;;;;;;18.42;43.09;102026.63;692968;28;21540;-66
2022/07/17 01:12:19;;;;;;;973.00;908.10;;;;;;;18.39;42.99;102027.84;692420;28;44438;-66
2022/07/17 01:12:40;;;;;;;983.22;917.83;;;;;;;18.37;43.29;102025.31;692935;28;22400;-66
2022/07/17 01:13:02;;;;;;;963.97;899.25;;;;;;;18.35;43.26;102023.81;692185;28;48537;-66
2022/07/17 01:13:24;;;;;;;979.58;914.28;;;;;;;18.33;43.08;102029.47;692090;28;47267;-65
2022/07/17 01:13:46;;;;;;;955.80;891.53;;;;;;;18.29;43.26;102028.19;692040;28;46413;-67
2022/07/17 01:14:07;;;;;;;949.10;885.00;;;;;;;18.30;43.24;102029.03;693070;28;23511;-66
2022/07/17 01:14:28;;;;;;;967.10;902.40;;;;;;;18.28;43.22;102026.50;692722;28;45043;-66
2022/07/17 01:14:50;;;;;;;983.83;918.53;;;;;;;18.25;43.32;102028.78;692555;28;22409;-65
2022/07/17 01:15:13;;;;;;;955.22;890.78;;;;;;;18.25;43.11;102026.06;691900;28;46356;-66
2022/07/17 01:15:36;;;;;;;957.15;892.58;;;;;;;18.19;43.60;102025.78;693040;28;46412;-66
2022/07/17 01:15:57;;;;;;;971.65;906.50;;;;;;;18.19;43.27;102031.25;690455;28;90311;-66
2022/07/17 01:16:20;;;;;;;977.30;912.03;;;;;;;18.18;43.34;102029.56;693246;28;23456;-65
2022/07/17 01:16:41;;;;;;;969.67;904.88;;;;;;;18.16;43.29;102026.16;690644;28;68079;-66
2022/07/17 01:17:02;;;;;;;960.20;895.80;;;;;;;18.15;43.41;102029.09;692172;28;45208;-66
2022/07/17 01:17:24;;;;;;;959.40;894.97;;;;;;;18.13;43.29;102028.47;692836;28;22390;-66
2022/07/17 01:17:47;;;;;;;987.72;922.28;;;;;;;18.11;43.52;102027.81;692779;28;21517;-66
2022/07/17 01:18:10;;;;;;;991.80;926.20;;;;;;;18.10;43.79;102026.13;690315;28;92607;-66
2022/07/17 01:18:32;;;;;;;993.10;927.55;;;;;;;18.07;43.48;102021.91;691630;28;68286;-66
2022/07/17 01:18:54;;;;;;;993.20;927.47;;;;;;;18.07;43.71;102026.50;692499;28;22322;-66
2022/07/17 01:19:16;;;;;;;989.28;923.75;;;;;;;18.03;43.63;102025.22;691280;28;69506;-66
2022/07/17 01:19:38;;;;;;;997.10;930.97;;;;;;;18.02;43.63;102021.63;691676;28;1442;-65
2022/07/17 01:20:00;;;;;;;1001.45;935.53;;;;;;;18.02;43.83;102032.56;689896;28;46388;-66
2022/07/17 01:20:22;;;;;;;993.33;927.72;;;;;;;18.01;43.81;102025.41;690707;28;44400;-66
2022/07/17 01:20:46;;;;;;;996.35;930.60;;;;;;;18.00;43.62;102024.53;691092;28;21536;-66
2022/07/17 01:21:12;;;;;;;989.70;924.20;;;;;;;17.97;44.04;102018.63;688447;28;113592;-65
2022/07/17 01:21:39;;;;;;;984.28;918.67;;;;;;;17.94;43.82;102019.84;689973;28;79004;-66
2022/07/17 01:22:00;;;;;;;983.67;918.28;;;;;;;17.97;44.20;102033.13;685818;28;119433;-66
2022/07/17 01:22:23;;;;;;;972.58;907.60;;;;;;;17.94;44.02;102028.06;689722;28;970;-66
2022/07/17 01:22:46;;;;;;;963.80;899.20;;;;;;;17.93;44.13;102028.25;688268;28;46321;-66
2022/07/17 01:23:08;;;;;;;967.60;902.80;;;;;;;17.92;44.02;102026.59;686363;28;93252;-66
2022/07/17 01:23:29;;;;;;;984.38;919.05;;;;;;;17.84;44.12;102020.16;688550;28;23324;-66
2022/07/17 01:23:51;;;;;;;975.88;910.88;;;;;;;17.88;44.00;102028.84;690455;28;23381;-66
2022/07/17 01:24:12;;;;;;;974.55;909.53;;;;;;;17.86;44.04;102019.13;692603;28;46339;-66
2022/07/17 01:24:34;;;;;;;974.20;909.25;;;;;;;17.83;44.25;102028.56;692798;28;24550;-66
2022/07/17 01:24:55;;;;;;;951.97;887.78;;;;;;;17.79;44.31;102025.38;692655;28;21544;-66
2022/07/17 01:25:20;;;;;;;950.10;885.88;;;;;;;17.80;44.47;102031.66;693320;28;22481;-66
2022/07/17 01:25:43;;;;;;;978.90;913.65;;;;;;;17.77;44.40;102023.84;688723;28;137983;-66
2022/07/17 01:26:04;;;;;;;990.05;924.50;;;;;;;17.75;44.33;102036.88;692459;28;45274;-65
2022/07/17 01:26:25;;;;;;;985.97;920.58;;;;;;;17.72;44.58;102023.59;691151;28;46224;-66
2022/07/17 01:26:48;;;;;;;984.60;919.17;;;;;;;17.71;44.39;102033.69;693102;28;22403;-66
2022/07/17 01:27:09;;;;;;;985.40;919.88;;;;;;;17.71;44.82;102030.09;691882;28;45243;-66
2022/07/17 01:27:31;;;;;;;987.00;921.50;;;;;;;17.69;44.68;102027.56;693089;28;22405;-65
2022/07/17 01:27:52;;;;;;;979.17;913.97;;;;;;;17.68;44.64;102034.06;691967;28;46328;-66
2022/07/17 01:28:14;;;;;;;976.78;911.67;;;;;;;17.65;44.84;102031.72;692982;28;46125;-65
2022/07/17 01:28:36;;;;;;;954.88;890.53;;;;;;;17.63;44.76;102023.72;693396;28;22160;-66
2022/07/17 01:28:57;;;;;;;960.85;896.30;;;;;;;17.58;44.63;102017.97;689717;28;46391;-67
2022/07/17 01:29:19;;;;;;;991.50;925.85;;;;;;;17.61;44.99;102031.25;690729;28;44386;-66
2022/07/17 01:29:40;;;;;;;991.15;925.50;;;;;;;17.59;44.73;102033.34;691424;28;22377;-67
2022/07/17 01:30:01;;;;;;;986.38;920.90;;;;;;;17.55;45.17;102028.44;691406;28;22391;-66
2022/07/17 01:30:23;;;;;;;996.97;931.13;;;;;;;17.55;44.91;102029.28;691018;28;47370;-66
2022/07/17 01:30:46;;;;;;;994.35;928.65;;;;;;;17.51;44.82;102028.00;690796;28;46302;-67
2022/07/17 01:31:07;;;;;;;994.92;929.13;;;;;;;17.53;45.13;102025.91;693486;28;45240;-67
2022/07/17 01:31:28;;;;;;;1007.47;941.03;;;;;;;17.50;45.14;102031.75;691541;28;46302;-67
2022/07/17 01:31:51;;;;;;;1006.65;940.22;;;;;;;17.48;44.97;102028.38;692685;28;23458;-68
2022/07/17 01:32:12;;;;;;;1002.38;936.38;;;;;;;17.45;45.21;102029.59;691419;28;45248;-66
2022/07/17 01:32:34;;;;;;;1004.38;938.25;;;;;;;17.47;45.02;102026.66;690007;28;23066;-65
2022/07/17 01:32:55;;;;;;;1009.95;943.58;;;;;;;17.46;44.89;102033.16;689785;28;45018;-65
2022/07/17 01:33:17;;;;;;;1010.47;944.10;;;;;;;17.45;44.85;102029.59;689876;28;45246;-65
2022/07/17 01:33:39;;;;;;;1011.38;945.03;;;;;;;17.42;44.97;102029.13;689361;28;45229;-67
2022/07/17 01:34:01;;;;;;;1014.28;947.67;;;;;;;17.41;45.40;102019.25;691902;28;23455;-66
2022/07/17 01:34:22;;;;;;;1031.90;964.42;;;;;;;17.43;44.91;102026.22;689849;28;67455;-67
2022/07/17 01:34:44;;;;;;;1032.35;964.90;;;;;;;17.41;45.38;102028.31;692289;28;23469;-66
2022/07/17 01:35:07;;;;;;;1036.93;969.10;;;;;;;17.40;45.25;102023.88;691648;28;22383;-65
2022/07/17 01:35:29;;;;;;;1023.85;956.83;;;;;;;17.40;45.25;102017.56;689928;28;93141;-65
2022/07/17 01:35:50;;;;;;;1017.83;951.05;;;;;;;17.38;45.15;102028.69;692309;28;21572;-65
2022/07/17 01:36:13;;;;;;;1017.08;950.28;;;;;;;17.38;45.36;102028.69;692526;28;22394;-65
2022/07/17 01:36:35;;;;;;;1021.50;954.70;;;;;;;17.38;45.33;102019.63;690233;28;92255;-65
2022/07/17 01:36:56;;;;;;;1021.03;954.10;;;;;;;17.35;45.49;102020.88;691744;28;23449;-64
2022/07/17 01:37:17;;;;;;;1017.40;950.50;;;;;;;17.36;45.36;102025.28;692626;28;23643;-65
2022/07/17 01:37:39;;;;;;;1015.78;949.20;;;;;;;17.36;45.49;102021.72;692664;28;23445;-65
2022/07/17 01:38:01;;;;;;;1017.00;950.25;;;;;;;17.37;45.15;102024.25;691323;28;46407;-65
2022/07/17 01:38:22;;;;;;;1019.40;952.60;;;;;;;17.35;45.22;102020.88;690107;28;70232;-66